首页
METAR-TAF:

METAR-TAF

机场 :

怡保国际机场

怡保, 马来西亚

纬度: 04-34-09N, 经度: 101-05-35E, 海拔: 40米

当前天气观测

该预报发布于1小时和3分钟前的03:00 UTC
风速2节,风向多变
温度 29°C
湿度 79%
气压 1012 hPa
能見度: 9000
少量云层高于1800英尺

METAR: WMKI 170300Z VRB02KT 9000 FEW018 29/25 Q1012

时间: 12:03 (04:03 UTC)

预报

该预报发布于5小时和3分钟前的23:00 UTC
预报有效从17日的 00点(UTC)到 18日的 00点(UTC)
风速3节,风向多变
能見度: 8000
少量云层高于2000英尺
短暂存在
从 17日的 07点(UTC)到 17日的 12点(UTC)
风速7节,风向西北
能見度: 5000
少量云层高于1700英尺, 积雨云.
雷暴, 雨,

TAF: WMKI 162300Z 1700/1800 VRB03KT 8000 FEW020 TEMPO 1707/1712 31007KT 5000 TSRA FEW017CB

超过4000个机场的气象观测和天气预报(METAR&TAF报告)。

可查询的气象台以黄色和红色小点在地图上表示。

将鼠标移到小点上方,可查看气象台名称。

然后点击查看天气观测和预报。

如需切换地图:点击带黑十字的绿色按钮放大地图;点击带横线的绿色按钮缩小地图;或者点击绿色箭头查看邻近地区的地图。


METAR-TAF: